createdAt,value
2018-01-26T00:01:21.539Z,5.93
2018-01-26T00:03:49.003Z,5.40
2018-01-26T00:06:16.470Z,5.13
2018-01-26T00:08:43.948Z,5.23
2018-01-26T00:11:12.185Z,4.50
2018-01-26T00:13:39.650Z,5.00
2018-01-26T00:16:07.497Z,5.13
2018-01-26T00:18:34.981Z,5.00
2018-01-26T00:21:02.524Z,5.30
2018-01-26T00:23:30.004Z,5.10
2018-01-26T00:25:57.464Z,5.73
2018-01-26T00:28:24.944Z,5.57
2018-01-26T00:30:52.401Z,5.80
2018-01-26T00:33:19.897Z,6.40
2018-01-26T00:35:47.365Z,5.97
2018-01-26T00:38:14.814Z,5.63
2018-01-26T00:40:42.277Z,6.20
2018-01-26T00:43:09.773Z,6.80
2018-01-26T00:45:37.238Z,6.43
2018-01-26T00:48:04.697Z,5.90
2018-01-26T00:50:32.175Z,5.70
2018-01-26T00:53:00.394Z,5.90
2018-01-26T00:55:27.865Z,6.50
2018-01-26T00:57:55.317Z,5.23
2018-01-26T01:00:22.785Z,5.40
2018-01-26T01:02:50.242Z,5.37
2018-01-26T01:05:17.735Z,7.67
2018-01-26T01:07:45.609Z,6.80
2018-01-26T01:10:13.062Z,5.83
2018-01-26T01:12:40.530Z,7.03
2018-01-26T01:15:08.807Z,6.90
2018-01-26T01:17:36.250Z,6.30
2018-01-26T01:20:03.727Z,6.70
2018-01-26T01:22:31.955Z,6.97
2018-01-26T01:25:00.177Z,7.30
2018-01-26T01:27:28.431Z,7.80
2018-01-26T01:29:55.881Z,6.90
2018-01-26T01:32:23.346Z,7.20
2018-01-26T01:34:50.869Z,8.40
2018-01-26T01:37:18.327Z,7.80
2018-01-26T01:39:45.816Z,7.90
2018-01-26T01:42:13.265Z,8.23
2018-01-26T01:44:40.733Z,8.30
2018-01-26T01:47:08.189Z,8.70
2018-01-26T01:49:35.665Z,8.47
2018-01-26T01:52:03.119Z,8.73
2018-01-26T01:54:30.652Z,9.77
2018-01-26T01:56:58.105Z,10.40
2018-01-26T01:59:25.585Z,8.60
2018-01-26T02:01:53.038Z,7.97
2018-01-26T02:04:20.515Z,9.80
2018-01-26T02:06:48.720Z,9.10
2018-01-26T02:09:16.950Z,11.20
2018-01-26T02:11:44.411Z,8.60
2018-01-26T02:14:11.884Z,10.50
2018-01-26T02:16:39.379Z,10.80
2018-01-26T02:19:06.851Z,9.80
2018-01-26T02:21:34.348Z,10.27
2018-01-26T02:24:01.814Z,10.10
2018-01-26T02:26:29.317Z,10.50
2018-01-26T02:28:56.829Z,9.00
2018-01-26T02:31:24.358Z,9.97
2018-01-26T02:33:51.834Z,10.07
2018-01-26T02:36:19.353Z,11.10
2018-01-26T02:38:46.819Z,11.30
2018-01-26T02:41:14.298Z,10.40
2018-01-26T02:43:41.767Z,10.63
2018-01-26T02:46:09.261Z,11.40
2018-01-26T02:48:36.729Z,10.47
2018-01-26T02:51:04.965Z,10.60
2018-01-26T02:53:32.418Z,9.70
2018-01-26T02:55:59.905Z,11.17
2018-01-26T02:58:27.398Z,10.10
2018-01-26T03:00:54.841Z,10.87
2018-01-26T03:03:22.338Z,12.20
2018-01-26T03:05:49.780Z,10.83
2018-01-26T03:08:17.260Z,11.27
2018-01-26T03:10:44.715Z,12.00
2018-01-26T03:13:12.185Z,10.83
2018-01-26T03:15:39.652Z,9.77
2018-01-26T03:18:07.109Z,11.17
2018-01-26T03:20:34.567Z,11.67
2018-01-26T03:23:02.064Z,12.10
2018-01-26T03:25:30.302Z,11.80
2018-01-26T03:27:57.753Z,13.40
2018-01-26T03:30:25.226Z,10.93
2018-01-26T03:32:52.685Z,10.57
2018-01-26T03:35:20.164Z,11.00
2018-01-26T03:37:48.384Z,12.13
2018-01-26T03:40:15.870Z,9.50
2018-01-26T03:42:43.344Z,11.40
2018-01-26T03:45:10.821Z,11.17
2018-01-26T03:47:39.078Z,10.70
2018-01-26T03:50:06.530Z,10.33
2018-01-26T03:52:39.842Z,11.00
2018-01-26T03:55:08.079Z,11.97
2018-01-26T03:57:35.545Z,12.90
2018-01-26T04:00:03.010Z,10.50
2018-01-26T04:02:30.467Z,11.27
2018-01-26T04:04:57.938Z,13.07
2018-01-26T04:07:25.403Z,10.07
2018-01-26T04:09:53.629Z,10.60
2018-01-26T04:12:21.093Z,11.33
2018-01-26T04:14:48.545Z,11.43
2018-01-26T04:17:16.025Z,11.83
2018-01-26T04:19:43.493Z,11.30
2018-01-26T04:22:10.988Z,12.27
2018-01-26T04:24:39.216Z,12.37
2018-01-26T04:27:06.700Z,12.20
2018-01-26T04:29:34.187Z,11.03
2018-01-26T04:32:02.421Z,13.37
2018-01-26T04:34:29.904Z,12.40
2018-01-26T04:36:58.129Z,12.83
2018-01-26T04:39:25.595Z,11.80
2018-01-26T04:41:53.077Z,13.00
2018-01-26T04:44:20.554Z,12.00
2018-01-26T04:46:48.012Z,13.00
2018-01-26T04:49:16.241Z,14.97
2018-01-26T04:51:43.735Z,12.50
2018-01-26T04:54:11.215Z,11.80
2018-01-26T04:56:39.449Z,13.70
2018-01-26T04:59:06.922Z,14.00
2018-01-26T05:01:34.536Z,12.87
2018-01-26T05:04:02.009Z,13.10
2018-01-26T05:06:29.479Z,12.03
2018-01-26T05:08:56.952Z,13.30
2018-01-26T05:11:24.515Z,13.20
2018-01-26T05:13:52.006Z,12.87
2018-01-26T05:16:20.276Z,13.07
2018-01-26T05:18:47.746Z,11.70
2018-01-26T05:21:15.960Z,13.00
2018-01-26T05:23:43.479Z,13.63
2018-01-26T05:26:10.954Z,13.57
2018-01-26T05:28:38.479Z,11.83
2018-01-26T05:31:06.268Z,12.47
2018-01-26T05:33:34.646Z,12.27
2018-01-26T05:36:03.306Z,12.47
2018-01-26T05:38:31.347Z,12.17
2018-01-26T05:40:58.818Z,13.20
2018-01-26T05:43:26.287Z,13.63
2018-01-26T05:45:53.768Z,12.87
2018-01-26T05:48:22.027Z,12.33
2018-01-26T05:50:49.539Z,13.03
2018-01-26T05:53:17.010Z,12.80
2018-01-26T05:55:44.520Z,13.37
2018-01-26T05:58:12.769Z,15.27
2018-01-26T06:00:40.258Z,15.40
2018-01-26T06:03:08.510Z,14.87
2018-01-26T06:05:35.991Z,12.33
2018-01-26T06:08:03.486Z,13.10
2018-01-26T06:10:30.967Z,17.67
2018-01-26T06:12:58.458Z,16.70
2018-01-26T06:15:25.958Z,19.60
2018-01-26T06:17:53.456Z,14.20
2018-01-26T06:20:21.126Z,14.07
2018-01-26T06:22:48.601Z,12.83
2018-01-26T06:25:16.061Z,15.30
2018-01-26T06:27:43.554Z,19.77
2018-01-26T06:30:11.020Z,17.63
2018-01-26T06:32:38.495Z,16.30
2018-01-26T06:35:05.966Z,16.50
2018-01-26T06:37:33.480Z,17.23
2018-01-26T06:40:00.986Z,17.73
2018-01-26T06:42:28.443Z,16.30
2018-01-26T06:44:55.962Z,15.60
2018-01-26T06:47:23.433Z,16.27
2018-01-26T06:49:50.920Z,16.23
2018-01-26T06:52:18.464Z,17.30
2018-01-26T06:54:45.934Z,20.20
2018-01-26T06:57:14.164Z,18.17
2018-01-26T06:59:42.404Z,16.50
2018-01-26T07:02:09.871Z,17.00
2018-01-26T07:04:37.324Z,18.47
2018-01-26T07:07:04.869Z,15.63
2018-01-26T07:09:33.139Z,13.30
2018-01-26T07:12:00.602Z,16.80
2018-01-26T07:14:28.082Z,16.27
2018-01-26T07:16:55.552Z,13.87
2018-01-26T07:19:23.799Z,12.40
2018-01-26T07:21:51.282Z,12.10
2018-01-26T07:24:18.790Z,14.00
2018-01-26T07:26:46.257Z,12.50
2018-01-26T07:29:13.746Z,11.33
2018-01-26T07:31:41.237Z,11.43
2018-01-26T07:34:08.770Z,12.97
2018-01-26T07:36:36.248Z,12.97
2018-01-26T07:39:04.487Z,10.70
2018-01-26T07:41:31.954Z,11.17
2018-01-26T07:43:59.437Z,9.60
2018-01-26T07:46:27.677Z,10.43
2018-01-26T07:48:55.156Z,9.70
2018-01-26T07:51:22.642Z,10.07
2018-01-26T07:53:50.877Z,11.10
2018-01-26T07:56:18.382Z,10.07
2018-01-26T07:58:46.628Z,11.43
2018-01-26T08:01:14.095Z,11.50
2018-01-26T08:03:42.395Z,12.20
2018-01-26T08:06:09.882Z,12.47
2018-01-26T08:08:37.398Z,10.67
2018-01-26T08:11:05.646Z,9.70
2018-01-26T08:13:33.117Z,9.70
2018-01-26T08:16:00.594Z,8.87
2018-01-26T08:18:28.866Z,9.50
2018-01-26T08:20:57.117Z,9.20
2018-01-26T08:23:24.597Z,11.03
2018-01-26T08:25:52.881Z,10.97
2018-01-26T08:28:21.124Z,10.17
2018-01-26T08:30:48.606Z,10.20
2018-01-26T08:33:17.498Z,9.93
2018-01-26T08:35:45.774Z,9.07
2018-01-26T08:38:13.238Z,8.57
2018-01-26T08:40:41.484Z,8.77
2018-01-26T08:43:08.952Z,9.53
2018-01-26T08:45:36.422Z,8.07
2018-01-26T08:48:03.906Z,7.70
2018-01-26T08:50:31.389Z,7.57
2018-01-26T08:52:58.870Z,8.10
2018-01-26T08:55:27.176Z,8.90
2018-01-26T08:57:54.648Z,8.07
2018-01-26T09:00:22.878Z,7.27
2018-01-26T09:02:50.339Z,8.33
2018-01-26T09:05:17.805Z,6.87
2018-01-26T09:07:45.431Z,8.63
2018-01-26T09:10:12.890Z,7.90
2018-01-26T09:12:40.378Z,6.43
2018-01-26T09:15:25.612Z,8.93
2018-01-26T09:17:53.629Z,7.37
2018-01-26T09:20:21.100Z,7.40
2018-01-26T09:22:48.594Z,8.10
2018-01-26T09:25:16.063Z,6.20
2018-01-26T09:27:43.538Z,5.47
2018-01-26T09:30:11.033Z,6.00
2018-01-26T09:32:38.510Z,4.90
2018-01-26T09:35:05.990Z,5.60
2018-01-26T09:37:33.452Z,5.27
2018-01-26T09:40:00.932Z,7.37
2018-01-26T09:42:28.391Z,5.97
2018-01-26T09:44:55.873Z,6.20
2018-01-26T09:47:23.349Z,5.80
2018-01-26T09:49:50.811Z,6.07
2018-01-26T09:52:19.035Z,5.40
2018-01-26T09:54:46.521Z,5.77
2018-01-26T09:57:13.979Z,4.93
2018-01-26T09:59:41.429Z,5.60
2018-01-26T10:02:08.890Z,5.23
2018-01-26T10:04:36.357Z,5.23
2018-01-26T10:07:03.823Z,5.23
2018-01-26T10:09:31.298Z,5.97
2018-01-26T10:11:59.534Z,7.00
2018-01-26T10:14:27.018Z,4.97
2018-01-26T10:16:54.488Z,5.70
2018-01-26T10:19:22.723Z,6.50
2018-01-26T10:21:50.220Z,5.97
2018-01-26T10:24:17.688Z,5.43
2018-01-26T10:26:45.932Z,6.27
2018-01-26T10:29:13.390Z,5.67
2018-01-26T10:31:40.903Z,7.23
2018-01-26T10:34:08.367Z,5.03
2018-01-26T10:36:35.870Z,5.47
2018-01-26T10:39:03.376Z,5.50
2018-01-26T10:41:30.853Z,4.40
2018-01-26T10:43:58.330Z,5.50
2018-01-26T10:46:25.794Z,5.30
2018-01-26T10:48:53.276Z,5.03
2018-01-26T10:51:20.738Z,4.30
2018-01-26T10:53:48.216Z,5.37
2018-01-26T10:56:16.450Z,8.07
2018-01-26T10:58:43.921Z,6.90
2018-01-26T11:01:11.382Z,6.33
2018-01-26T11:03:38.924Z,5.37
2018-01-26T11:06:06.384Z,4.50
2018-01-26T11:08:33.870Z,6.17
2018-01-26T11:11:01.334Z,6.00
2018-01-26T11:13:29.582Z,6.17
2018-01-26T11:15:57.057Z,5.93
2018-01-26T11:18:24.528Z,6.43
2018-01-26T11:20:53.005Z,7.17
2018-01-26T11:23:20.629Z,6.30
2018-01-26T11:25:48.450Z,6.73
2018-01-26T11:28:15.982Z,6.87
2018-01-26T11:30:43.513Z,7.10
2018-01-26T11:33:11.012Z,8.70
2018-01-26T11:35:39.247Z,7.73
2018-01-26T11:38:06.882Z,6.17
2018-01-26T11:40:34.526Z,5.93
2018-01-26T11:43:02.787Z,5.80
2018-01-26T11:45:30.241Z,6.40
2018-01-26T11:47:57.740Z,5.70
2018-01-26T11:50:25.239Z,7.20
2018-01-26T11:52:52.722Z,6.53
2018-01-26T11:55:20.963Z,7.30
2018-01-26T11:57:49.198Z,6.80
2018-01-26T12:00:16.687Z,7.30
2018-01-26T12:02:44.158Z,8.40
2018-01-26T12:05:12.400Z,8.40
2018-01-26T12:07:39.878Z,8.20
2018-01-26T12:10:07.347Z,8.50
2018-01-26T12:12:34.829Z,9.07
2018-01-26T12:15:02.310Z,7.53
2018-01-26T12:17:30.560Z,9.00
2018-01-26T12:19:58.031Z,7.80
2018-01-26T12:22:25.525Z,9.20
2018-01-26T12:24:53.015Z,7.63
2018-01-26T12:27:20.505Z,8.33
2018-01-26T12:29:48.028Z,8.10
2018-01-26T12:32:15.578Z,9.27
2018-01-26T12:34:43.031Z,8.20
2018-01-26T12:37:10.514Z,7.60
2018-01-26T12:39:38.025Z,7.60
2018-01-26T12:42:06.727Z,7.47
2018-01-26T12:44:34.214Z,7.63
2018-01-26T12:47:01.754Z,6.43
2018-01-26T12:49:29.251Z,8.60
2018-01-26T12:51:56.911Z,9.20
2018-01-26T12:54:24.410Z,8.10
2018-01-26T12:56:52.703Z,8.20
2018-01-26T12:59:20.214Z,8.03
2018-01-26T13:01:49.305Z,6.90
2018-01-26T13:04:17.029Z,7.50
2018-01-26T13:06:44.482Z,7.87
2018-01-26T13:09:11.957Z,7.50
2018-01-26T13:11:39.435Z,8.50
2018-01-26T13:14:06.946Z,7.37
2018-01-26T13:16:34.461Z,8.53
2018-01-26T13:19:01.955Z,8.27
2018-01-26T13:21:30.224Z,7.37
2018-01-26T13:23:58.703Z,7.70
2018-01-26T13:26:26.173Z,7.63
2018-01-26T13:28:54.489Z,6.70
2018-01-26T13:31:21.998Z,6.80
2018-01-26T13:33:49.542Z,7.47
2018-01-26T13:36:17.025Z,7.87
2018-01-26T13:38:45.408Z,7.00
2018-01-26T13:41:13.648Z,7.73
2018-01-26T13:43:41.118Z,6.13
2018-01-26T13:46:08.620Z,6.43
2018-01-26T13:48:36.078Z,7.83
2018-01-26T13:51:03.574Z,6.10
2018-01-26T13:53:31.032Z,7.00
2018-01-26T13:55:58.509Z,8.90
2018-01-26T13:58:25.999Z,8.57
2018-01-26T14:00:54.367Z,8.10
2018-01-26T14:03:22.699Z,9.77
2018-01-26T14:05:50.176Z,9.23
2018-01-26T14:08:17.651Z,9.30
2018-01-26T14:10:45.417Z,9.70
2018-01-26T14:13:12.918Z,9.33
2018-01-26T14:15:40.775Z,9.10
2018-01-26T14:18:08.273Z,9.43
2018-01-26T14:20:35.950Z,9.47
2018-01-26T14:23:04.322Z,8.50
2018-01-26T14:25:32.113Z,10.70
2018-01-26T14:27:59.639Z,9.40
2018-01-26T14:30:27.117Z,11.57
2018-01-26T14:32:54.626Z,10.80
2018-01-26T14:35:22.642Z,10.20
2018-01-26T14:37:50.919Z,9.13
2018-01-26T14:40:18.404Z,10.47
2018-01-26T14:42:45.881Z,9.00
2018-01-26T14:45:13.394Z,9.43
2018-01-26T14:47:40.939Z,8.77
2018-01-26T14:50:08.421Z,9.27
2018-01-26T14:52:35.886Z,9.17
2018-01-26T14:55:03.399Z,10.67
2018-01-26T14:57:30.860Z,10.43
2018-01-26T14:59:58.351Z,9.47
2018-01-26T15:02:25.838Z,9.70
2018-01-26T15:04:53.354Z,9.63
2018-01-26T15:07:20.838Z,9.40
2018-01-26T15:09:48.311Z,9.90
2018-01-26T15:12:16.566Z,9.10
2018-01-26T15:14:44.036Z,9.20
2018-01-26T15:17:11.527Z,11.10
2018-01-26T15:19:38.975Z,9.00
2018-01-26T15:22:07.223Z,7.83
2018-01-26T15:24:34.688Z,8.27
2018-01-26T15:27:02.222Z,8.20
2018-01-26T15:29:29.704Z,8.73
2018-01-26T15:31:57.199Z,7.40
2018-01-26T15:34:24.670Z,9.83
2018-01-26T15:36:52.132Z,7.63
2018-01-26T15:39:19.599Z,8.60
2018-01-26T15:41:47.098Z,9.07
2018-01-26T15:44:14.568Z,9.43
2018-01-26T15:46:42.810Z,11.00
2018-01-26T15:49:10.353Z,11.10
2018-01-26T15:51:37.851Z,11.17
2018-01-26T15:54:05.502Z,9.93
2018-01-26T15:56:33.144Z,11.40
2018-01-26T15:59:00.690Z,12.17
2018-01-26T16:01:28.167Z,11.50
2018-01-26T16:03:55.628Z,11.30
2018-01-26T16:06:23.109Z,11.07
2018-01-26T16:08:50.669Z,12.20
2018-01-26T16:11:18.941Z,12.90
2018-01-26T16:13:46.399Z,10.90
2018-01-26T16:16:13.876Z,12.27
2018-01-26T16:18:42.273Z,11.53
2018-01-26T16:21:09.773Z,14.70
2018-01-26T16:23:37.521Z,14.33
2018-01-26T16:26:04.994Z,13.17
2018-01-26T16:28:32.477Z,14.60
2018-01-26T16:31:00.132Z,15.00
2018-01-26T16:33:27.648Z,14.50
2018-01-26T16:35:55.118Z,16.03
2018-01-26T16:38:22.606Z,15.93
2018-01-26T16:40:50.066Z,17.17
2018-01-26T16:43:17.538Z,17.00
2018-01-26T16:45:45.034Z,16.73
2018-01-26T16:48:12.512Z,16.03
2018-01-26T16:50:39.971Z,17.17
2018-01-26T16:53:07.491Z,16.43
2018-01-26T16:55:35.747Z,15.90
2018-01-26T16:58:03.244Z,16.73
2018-01-26T17:00:31.467Z,18.40
2018-01-26T17:02:58.962Z,17.43
2018-01-26T17:05:27.209Z,18.07
2018-01-26T17:07:54.721Z,18.90
2018-01-26T17:10:22.194Z,26.17
2018-01-26T17:12:49.676Z,22.60
2018-01-26T17:15:17.242Z,21.63
2018-01-26T17:17:44.752Z,20.67
2018-01-26T17:20:12.205Z,20.23
2018-01-26T17:22:39.682Z,20.57
2018-01-26T17:25:07.163Z,19.40
2018-01-26T17:27:34.642Z,23.10
2018-01-26T17:30:02.135Z,28.13
2018-01-26T17:32:29.618Z,27.30
2018-01-26T17:34:57.113Z,29.20
2018-01-26T17:37:25.292Z,31.20
2018-01-26T17:39:52.878Z,29.67
2018-01-26T17:42:22.129Z,27.67
2018-01-26T17:44:50.508Z,26.90
2018-01-26T17:47:17.992Z,27.53
2018-01-26T17:49:46.382Z,27.80
2018-01-26T17:52:13.870Z,27.70
2018-01-26T17:54:41.531Z,24.47
2018-01-26T17:57:09.080Z,23.30
2018-01-26T17:59:37.328Z,25.60
2018-01-26T18:02:04.843Z,25.80
2018-01-26T18:04:32.328Z,30.17
2018-01-26T18:06:59.815Z,33.13
2018-01-26T18:09:27.281Z,29.60
2018-01-26T18:11:54.772Z,28.83
2018-01-26T18:14:22.290Z,25.87
2018-01-26T18:16:49.762Z,23.13
2018-01-26T18:19:18.042Z,23.57
2018-01-26T18:21:46.385Z,26.00
2018-01-26T18:24:13.873Z,25.20
2018-01-26T18:26:41.365Z,25.17
2018-01-26T18:29:08.855Z,22.63
2018-01-26T18:31:36.317Z,25.13
2018-01-26T18:34:03.882Z,31.00
2018-01-26T18:36:31.405Z,30.03
2018-01-26T18:38:58.913Z,31.13
2018-01-26T18:41:26.409Z,28.63
2018-01-26T18:43:53.915Z,27.60
2018-01-26T18:46:21.480Z,26.27
2018-01-26T18:48:49.816Z,25.80
2018-01-26T18:51:17.291Z,25.90
2018-01-26T18:53:44.774Z,24.70
2018-01-26T18:56:12.312Z,29.57
2018-01-26T18:58:39.795Z,27.97
2018-01-26T19:01:07.284Z,33.00
2018-01-26T19:03:34.767Z,40.90
2018-01-26T19:06:02.246Z,34.37
2018-01-26T19:08:29.756Z,33.60
2018-01-26T19:10:57.246Z,33.50
2018-01-26T19:13:24.749Z,32.60
2018-01-26T19:15:52.249Z,32.53
2018-01-26T19:18:20.491Z,30.90
2018-01-26T19:20:47.965Z,31.87
2018-01-26T19:23:15.430Z,31.20
2018-01-26T19:25:43.673Z,32.40
2018-01-26T19:28:11.222Z,29.63
2018-01-26T19:30:38.697Z,31.50
2018-01-26T19:33:06.181Z,31.30
2018-01-26T19:35:33.794Z,30.97
2018-01-26T19:38:01.368Z,28.13
2018-01-26T19:40:28.828Z,31.73
2018-01-26T19:42:56.340Z,29.07
2018-01-26T19:45:24.564Z,33.87
2018-01-26T19:47:52.072Z,31.40
2018-01-26T19:50:20.303Z,30.40
2018-01-26T19:52:48.067Z,33.83
2018-01-26T19:55:17.076Z,33.13
2018-01-26T19:57:44.838Z,31.37
2018-01-26T20:00:13.596Z,31.70
2018-01-26T20:02:41.110Z,28.97
2018-01-26T20:05:27.104Z,30.80
2018-01-26T20:08:00.381Z,29.13
2018-01-26T20:10:27.926Z,28.43
2018-01-26T20:13:01.044Z,29.90
2018-01-26T20:15:29.541Z,28.50
2018-01-26T20:17:57.187Z,28.80
2018-01-26T20:20:25.509Z,29.90
2018-01-26T20:22:53.014Z,30.77
2018-01-26T20:25:20.576Z,28.67
2018-01-26T20:27:48.065Z,28.30
2018-01-26T20:30:16.406Z,28.07
2018-01-26T20:32:44.173Z,27.37
2018-01-26T20:35:11.988Z,26.20
2018-01-26T20:37:39.603Z,32.60
2018-01-26T20:40:07.331Z,30.87
2018-01-26T20:42:35.173Z,30.40
2018-01-26T20:45:02.734Z,24.47
2018-01-26T20:47:30.219Z,22.07
2018-01-26T20:49:57.692Z,22.63
2018-01-26T20:52:25.213Z,22.20
2018-01-26T20:54:52.949Z,22.10
2018-01-26T20:57:20.720Z,23.17
2018-01-26T20:59:48.494Z,21.20
2018-01-26T21:02:16.102Z,20.70
2018-01-26T21:04:43.565Z,21.30
2018-01-26T21:07:11.305Z,23.23
2018-01-26T21:09:38.819Z,20.20
2018-01-26T21:12:06.615Z,22.53
2018-01-26T21:14:34.751Z,19.80
2018-01-26T21:17:02.231Z,21.03
2018-01-26T21:19:30.489Z,21.80
2018-01-26T21:21:58.007Z,20.47
2018-01-26T21:24:25.530Z,21.03
2018-01-26T21:26:53.813Z,21.40
2018-01-26T21:29:22.058Z,22.00
2018-01-26T21:31:49.617Z,22.90
2018-01-26T21:34:17.147Z,20.20
2018-01-26T21:36:44.627Z,22.93
2018-01-26T21:39:12.098Z,21.00
2018-01-26T21:41:39.581Z,22.37
2018-01-26T21:44:07.839Z,21.03
2018-01-26T21:46:35.391Z,22.43
2018-01-26T21:49:02.936Z,21.50
2018-01-26T21:51:30.441Z,23.03
2018-01-26T21:53:57.904Z,19.97
2018-01-26T21:56:25.418Z,19.73
2018-01-26T21:58:52.892Z,21.47
2018-01-26T22:01:20.368Z,21.30
2018-01-26T22:03:48.653Z,22.40
2018-01-26T22:06:22.506Z,23.23
2018-01-26T22:08:49.979Z,23.97
2018-01-26T22:11:17.465Z,23.77
2018-01-26T22:13:45.703Z,25.37
2018-01-26T22:16:13.177Z,26.40
2018-01-26T22:18:40.663Z,22.30
2018-01-26T22:21:08.913Z,23.37
2018-01-26T22:23:36.430Z,22.60
2018-01-26T22:26:03.890Z,22.17
2018-01-26T22:28:31.388Z,22.90
2018-01-26T22:30:58.849Z,23.03
2018-01-26T22:33:26.398Z,23.67
2018-01-26T22:35:53.857Z,25.13
2018-01-26T22:38:21.339Z,23.50
2018-01-26T22:40:48.822Z,27.07
2018-01-26T22:43:16.304Z,25.43
2018-01-26T22:45:43.768Z,24.93
2018-01-26T22:48:11.239Z,24.23
2018-01-26T22:50:38.730Z,24.93
2018-01-26T22:53:06.215Z,25.77
2018-01-26T22:55:33.709Z,28.60
2018-01-26T22:58:01.174Z,27.33
2018-01-26T23:00:28.734Z,27.63
2018-01-26T23:02:56.205Z,25.40
2018-01-26T23:05:23.671Z,25.57
2018-01-26T23:07:51.154Z,24.23
2018-01-26T23:10:19.399Z,24.60
2018-01-26T23:12:46.879Z,24.77
2018-01-26T23:15:14.350Z,25.60
2018-01-26T23:17:42.590Z,26.43
2018-01-26T23:20:10.048Z,23.80
2018-01-26T23:22:37.565Z,25.50
2018-01-26T23:25:05.081Z,25.70
2018-01-26T23:27:32.568Z,26.70
2018-01-26T23:30:00.798Z,25.80
2018-01-26T23:32:28.270Z,25.50
2018-01-26T23:34:55.727Z,25.93
2018-01-26T23:37:23.218Z,27.20
2018-01-26T23:39:51.454Z,25.27
2018-01-26T23:42:18.922Z,25.83
2018-01-26T23:44:46.399Z,25.23
2018-01-26T23:47:14.645Z,27.00
2018-01-26T23:49:42.133Z,27.77
2018-01-26T23:52:09.593Z,25.90
2018-01-26T23:54:37.109Z,26.17
2018-01-26T23:57:04.573Z,28.63
2018-01-26T23:59:32.043Z,29.80
